sensor_id;sensor_type;location;lat;lon;timestamp;temperature;humidity
36244;DHT22;22284;49.956;19.816;2022-12-18T00:01:25;-2.03;76.79
36244;DHT22;22284;49.956;19.816;2022-12-18T00:04:27;-2.01;76.68
36244;DHT22;22284;49.956;19.816;2022-12-18T00:07:28;-2.03;76.60
36244;DHT22;22284;49.956;19.816;2022-12-18T00:10:29;-2.00;76.57
36244;DHT22;22284;49.956;19.816;2022-12-18T00:13:30;-1.97;76.55
36244;DHT22;22284;49.956;19.816;2022-12-18T00:16:31;-1.99;76.42
36244;DHT22;22284;49.956;19.816;2022-12-18T00:19:34;-2.03;76.18
36244;DHT22;22284;49.956;19.816;2022-12-18T00:22:35;-2.04;76.29
36244;DHT22;22284;49.956;19.816;2022-12-18T00:25:36;-2.07;76.27
36244;DHT22;22284;49.956;19.816;2022-12-18T00:28:37;-2.07;76.30
36244;DHT22;22284;49.956;19.816;2022-12-18T00:31:38;-2.06;76.42
36244;DHT22;22284;49.956;19.816;2022-12-18T00:34:39;-2.07;76.40
36244;DHT22;22284;49.956;19.816;2022-12-18T00:37:40;-2.07;76.41
36244;DHT22;22284;49.956;19.816;2022-12-18T00:40:41;-2.03;76.42
36244;DHT22;22284;49.956;19.816;2022-12-18T00:43:42;-2.04;76.50
36244;DHT22;22284;49.956;19.816;2022-12-18T00:46:44;-2.04;76.50
36244;DHT22;22284;49.956;19.816;2022-12-18T00:49:45;-2.03;76.46
36244;DHT22;22284;49.956;19.816;2022-12-18T00:52:47;-2.04;76.49
36244;DHT22;22284;49.956;19.816;2022-12-18T00:55:48;-2.04;76.44
36244;DHT22;22284;49.956;19.816;2022-12-18T00:58:49;-2.03;76.45
36244;DHT22;22284;49.956;19.816;2022-12-18T01:01:50;-2.03;76.44
36244;DHT22;22284;49.956;19.816;2022-12-18T01:04:51;-2.04;76.45
36244;DHT22;22284;49.956;19.816;2022-12-18T01:07:52;-2.03;76.43
36244;DHT22;22284;49.956;19.816;2022-12-18T01:10:53;-2.01;76.45
36244;DHT22;22284;49.956;19.816;2022-12-18T01:13:54;-2.01;76.42
36244;DHT22;22284;49.956;19.816;2022-12-18T01:16:56;-2.01;76.45
36244;DHT22;22284;49.956;19.816;2022-12-18T01:19:57;-1.99;76.47
36244;DHT22;22284;49.956;19.816;2022-12-18T01:22:58;-1.97;76.42
36244;DHT22;22284;49.956;19.816;2022-12-18T01:26:06;-1.96;76.35
36244;DHT22;22284;49.956;19.816;2022-12-18T01:29:07;-1.97;76.35
36244;DHT22;22284;49.956;19.816;2022-12-18T01:32:08;-1.93;76.36
36244;DHT22;22284;49.956;19.816;2022-12-18T01:35:09;-1.93;76.33
36244;DHT22;22284;49.956;19.816;2022-12-18T01:38:10;-1.97;76.22
36244;DHT22;22284;49.956;19.816;2022-12-18T01:41:12;-1.99;76.20
36244;DHT22;22284;49.956;19.816;2022-12-18T01:48:01;-2.00;76.31
36244;DHT22;22284;49.956;19.816;2022-12-18T01:51:04;-2.00;76.29
36244;DHT22;22284;49.956;19.816;2022-12-18T01:54:06;-2.03;76.20
36244;DHT22;22284;49.956;19.816;2022-12-18T01:57:07;-2.01;76.27
36244;DHT22;22284;49.956;19.816;2022-12-18T02:00:15;-1.96;76.30
36244;DHT22;22284;49.956;19.816;2022-12-18T02:03:17;-1.94;76.27
36244;DHT22;22284;49.956;19.816;2022-12-18T02:06:29;-1.93;76.22
36244;DHT22;22284;49.956;19.816;2022-12-18T02:09:35;-1.89;76.26
36244;DHT22;22284;49.956;19.816;2022-12-18T02:20:16;-1.80;76.05
36244;DHT22;22284;49.956;19.816;2022-12-18T02:26:46;-1.80;75.94
36244;DHT22;22284;49.956;19.816;2022-12-18T02:29:53;-1.83;75.89
36244;DHT22;22284;49.956;19.816;2022-12-18T02:32:56;-1.83;75.84
36244;DHT22;22284;49.956;19.816;2022-12-18T02:35:59;-1.80;75.80
36244;DHT22;22284;49.956;19.816;2022-12-18T02:39:01;-1.79;75.67
36244;DHT22;22284;49.956;19.816;2022-12-18T02:42:03;-1.79;75.61
36244;DHT22;22284;49.956;19.816;2022-12-18T02:45:07;-1.76;75.56
36244;DHT22;22284;49.956;19.816;2022-12-18T02:48:08;-1.78;75.52
36244;DHT22;22284;49.956;19.816;2022-12-18T02:51:30;-1.78;75.58
36244;DHT22;22284;49.956;19.816;2022-12-18T02:54:38;-1.75;75.57
36244;DHT22;22284;49.956;19.816;2022-12-18T03:01:18;-1.69;75.49
36244;DHT22;22284;49.956;19.816;2022-12-18T03:07:46;-1.65;75.34
36244;DHT22;22284;49.956;19.816;2022-12-18T03:11:01;-1.65;75.19
36244;DHT22;22284;49.956;19.816;2022-12-18T03:13:59;-1.65;75.16
36244;DHT22;22284;49.956;19.816;2022-12-18T03:17:03;-1.66;75.11
36244;DHT22;22284;49.956;19.816;2022-12-18T03:20:14;-1.66;75.11
36244;DHT22;22284;49.956;19.816;2022-12-18T03:23:22;-1.68;75.07
36244;DHT22;22284;49.956;19.816;2022-12-18T03:26:26;-1.66;75.10
36244;DHT22;22284;49.956;19.816;2022-12-18T03:29:35;-1.68;75.12
36244;DHT22;22284;49.956;19.816;2022-12-18T03:36:08;-1.66;75.13
36244;DHT22;22284;49.956;19.816;2022-12-18T03:39:09;-1.65;75.16
36244;DHT22;22284;49.956;19.816;2022-12-18T03:42:43;-1.62;75.18
36244;DHT22;22284;49.956;19.816;2022-12-18T03:45:48;-1.58;75.21
36244;DHT22;22284;49.956;19.816;2022-12-18T03:48:59;-1.54;75.16
36244;DHT22;22284;49.956;19.816;2022-12-18T03:52:14;-1.51;75.07
36244;DHT22;22284;49.956;19.816;2022-12-18T03:55:17;-1.43;75.01
36244;DHT22;22284;49.956;19.816;2022-12-18T03:58:23;-1.37;74.99
36244;DHT22;22284;49.956;19.816;2022-12-18T04:01:35;-1.34;74.88
36244;DHT22;22284;49.956;19.816;2022-12-18T04:04:36;-1.31;74.82
36244;DHT22;22284;49.956;19.816;2022-12-18T04:07:39;-1.24;74.74
36244;DHT22;22284;49.956;19.816;2022-12-18T04:10:40;-1.20;74.63
36244;DHT22;22284;49.956;19.816;2022-12-18T04:13:42;-1.17;74.52
36244;DHT22;22284;49.956;19.816;2022-12-18T04:16:43;-1.16;74.36
36244;DHT22;22284;49.956;19.816;2022-12-18T04:19:44;-1.15;74.22
36244;DHT22;22284;49.956;19.816;2022-12-18T04:22:46;-1.10;74.10
36244;DHT22;22284;49.956;19.816;2022-12-18T04:25:47;-1.08;73.99
36244;DHT22;22284;49.956;19.816;2022-12-18T04:28:48;-1.08;73.82
36244;DHT22;22284;49.956;19.816;2022-12-18T04:31:49;-1.12;73.70
36244;DHT22;22284;49.956;19.816;2022-12-18T04:34:51;-1.16;73.67
36244;DHT22;22284;49.956;19.816;2022-12-18T04:37:52;-1.17;73.71
36244;DHT22;22284;49.956;19.816;2022-12-18T04:40:53;-1.21;73.68
36244;DHT22;22284;49.956;19.816;2022-12-18T04:43:54;-1.21;73.52
36244;DHT22;22284;49.956;19.816;2022-12-18T04:46:55;-1.24;73.39
36244;DHT22;22284;49.956;19.816;2022-12-18T04:49:56;-1.30;73.42
36244;DHT22;22284;49.956;19.816;2022-12-18T04:52:57;-1.33;73.26
36244;DHT22;22284;49.956;19.816;2022-12-18T04:56:07;-1.37;73.29
36244;DHT22;22284;49.956;19.816;2022-12-18T04:59:09;-1.38;73.23
36244;DHT22;22284;49.956;19.816;2022-12-18T05:02:11;-1.37;73.41
36244;DHT22;22284;49.956;19.816;2022-12-18T05:05:12;-1.36;73.49
36244;DHT22;22284;49.956;19.816;2022-12-18T05:08:13;-1.36;73.46
36244;DHT22;22284;49.956;19.816;2022-12-18T05:11:15;-1.33;73.52
36244;DHT22;22284;49.956;19.816;2022-12-18T05:14:16;-1.33;73.51
36244;DHT22;22284;49.956;19.816;2022-12-18T05:17:17;-1.27;73.60
36244;DHT22;22284;49.956;19.816;2022-12-18T05:20:18;-1.27;73.49
36244;DHT22;22284;49.956;19.816;2022-12-18T05:23:22;-1.23;73.53
36244;DHT22;22284;49.956;19.816;2022-12-18T05:26:23;-1.20;73.55
36244;DHT22;22284;49.956;19.816;2022-12-18T05:29:24;-1.16;73.38
36244;DHT22;22284;49.956;19.816;2022-12-18T05:32:25;-1.12;73.38
36244;DHT22;22284;49.956;19.816;2022-12-18T05:35:26;-1.13;73.17
36244;DHT22;22284;49.956;19.816;2022-12-18T05:38:29;-1.10;73.15
36244;DHT22;22284;49.956;19.816;2022-12-18T05:41:30;-1.08;73.12
36244;DHT22;22284;49.956;19.816;2022-12-18T05:44:31;-1.09;73.02
36244;DHT22;22284;49.956;19.816;2022-12-18T05:47:32;-1.10;72.75
36244;DHT22;22284;49.956;19.816;2022-12-18T05:50:35;-1.15;72.61
36244;DHT22;22284;49.956;19.816;2022-12-18T05:53:37;-1.17;72.54
36244;DHT22;22284;49.956;19.816;2022-12-18T05:56:38;-1.19;72.41
36244;DHT22;22284;49.956;19.816;2022-12-18T05:59:39;-1.21;72.26
36244;DHT22;22284;49.956;19.816;2022-12-18T06:02:40;-1.23;72.46
36244;DHT22;22284;49.956;19.816;2022-12-18T06:05:44;-1.27;72.55
36244;DHT22;22284;49.956;19.816;2022-12-18T06:08:46;-1.27;72.51
36244;DHT22;22284;49.956;19.816;2022-12-18T06:11:47;-1.28;72.70
36244;DHT22;22284;49.956;19.816;2022-12-18T06:14:48;-1.26;72.72
36244;DHT22;22284;49.956;19.816;2022-12-18T06:17:49;-1.24;72.74
36244;DHT22;22284;49.956;19.816;2022-12-18T06:20:56;-1.20;72.75
36244;DHT22;22284;49.956;19.816;2022-12-18T06:23:58;-1.19;72.78
36244;DHT22;22284;49.956;19.816;2022-12-18T06:26:59;-1.15;72.79
36244;DHT22;22284;49.956;19.816;2022-12-18T06:30:00;-1.09;72.82
36244;DHT22;22284;49.956;19.816;2022-12-18T06:33:01;-1.03;72.88
36244;DHT22;22284;49.956;19.816;2022-12-18T06:36:07;-1.00;72.87
36244;DHT22;22284;49.956;19.816;2022-12-18T06:39:08;-0.97;72.86
36244;DHT22;22284;49.956;19.816;2022-12-18T06:42:09;-0.90;72.85
36244;DHT22;22284;49.956;19.816;2022-12-18T06:45:10;-0.89;72.81
36244;DHT22;22284;49.956;19.816;2022-12-18T06:48:12;-0.88;72.75
36244;DHT22;22284;49.956;19.816;2022-12-18T06:51:19;-0.85;72.57
36244;DHT22;22284;49.956;19.816;2022-12-18T06:54:21;-0.81;72.38
36244;DHT22;22284;49.956;19.816;2022-12-18T06:57:22;-0.75;72.25
36244;DHT22;22284;49.956;19.816;2022-12-18T07:00:23;-0.72;72.10
36244;DHT22;22284;49.956;19.816;2022-12-18T07:03:24;-0.66;72.04
36244;DHT22;22284;49.956;19.816;2022-12-18T07:06:25;-0.62;72.08
36244;DHT22;22284;49.956;19.816;2022-12-18T07:09:26;-0.61;71.98
36244;DHT22;22284;49.956;19.816;2022-12-18T07:12:27;-0.57;71.98
36244;DHT22;22284;49.956;19.816;2022-12-18T07:15:28;-0.54;71.92
36244;DHT22;22284;49.956;19.816;2022-12-18T07:18:29;-0.51;71.95
36244;DHT22;22284;49.956;19.816;2022-12-18T07:21:30;-0.50;71.91
36244;DHT22;22284;49.956;19.816;2022-12-18T07:24:33;-0.47;71.80
36244;DHT22;22284;49.956;19.816;2022-12-18T07:27:35;-0.44;71.66
36244;DHT22;22284;49.956;19.816;2022-12-18T07:30:38;-0.40;71.68
36244;DHT22;22284;49.956;19.816;2022-12-18T07:33:38;-0.40;71.55
36244;DHT22;22284;49.956;19.816;2022-12-18T07:36:40;-0.33;71.47
36244;DHT22;22284;49.956;19.816;2022-12-18T07:39:41;-0.33;71.33
36244;DHT22;22284;49.956;19.816;2022-12-18T07:42:42;-0.25;71.31
36244;DHT22;22284;49.956;19.816;2022-12-18T07:45:43;-0.23;71.26
36244;DHT22;22284;49.956;19.816;2022-12-18T07:48:45;-0.13;71.20
36244;DHT22;22284;49.956;19.816;2022-12-18T07:51:46;-0.12;71.14
36244;DHT22;22284;49.956;19.816;2022-12-18T07:54:49;-0.06;71.00
36244;DHT22;22284;49.956;19.816;2022-12-18T07:57:50;-0.08;71.06
36244;DHT22;22284;49.956;19.816;2022-12-18T08:00:52;-0.09;70.87
36244;DHT22;22284;49.956;19.816;2022-12-18T08:03:53;-0.09;70.67
36244;DHT22;22284;49.956;19.816;2022-12-18T08:06:54;-0.10;70.67
36244;DHT22;22284;49.956;19.816;2022-12-18T08:09:55;-0.10;70.52
36244;DHT22;22284;49.956;19.816;2022-12-18T08:12:56;-0.06;70.39
36244;DHT22;22284;49.956;19.816;2022-12-18T08:16:04;-0.06;70.11
36244;DHT22;22284;49.956;19.816;2022-12-18T08:19:05;-0.06;69.89
36244;DHT22;22284;49.956;19.816;2022-12-18T08:22:06;-0.01;69.72
36244;DHT22;22284;49.956;19.816;2022-12-18T08:25:08;0.05;69.66
36244;DHT22;22284;49.956;19.816;2022-12-18T08:28:10;0.11;69.49
36244;DHT22;22284;49.956;19.816;2022-12-18T08:31:11;0.19;69.27
36244;DHT22;22284;49.956;19.816;2022-12-18T08:34:12;0.24;69.00
36244;DHT22;22284;49.956;19.816;2022-12-18T08:37:13;0.26;68.81
36244;DHT22;22284;49.956;19.816;2022-12-18T08:40:14;0.33;68.71
36244;DHT22;22284;49.956;19.816;2022-12-18T08:43:15;0.35;68.76
36244;DHT22;22284;49.956;19.816;2022-12-18T08:46:38;0.36;68.69
36244;DHT22;22284;49.956;19.816;2022-12-18T08:49:40;0.36;68.42
36244;DHT22;22284;49.956;19.816;2022-12-18T08:52:41;0.39;68.33
36244;DHT22;22284;49.956;19.816;2022-12-18T08:55:42;0.43;68.11
36244;DHT22;22284;49.956;19.816;2022-12-18T08:58:43;0.49;68.06
36244;DHT22;22284;49.956;19.816;2022-12-18T09:01:45;0.56;67.74
36244;DHT22;22284;49.956;19.816;2022-12-18T09:04:47;0.56;67.71
36244;DHT22;22284;49.956;19.816;2022-12-18T09:07:49;0.56;67.77
36244;DHT22;22284;49.956;19.816;2022-12-18T09:10:50;0.57;67.73
36244;DHT22;22284;49.956;19.816;2022-12-18T09:13:53;0.60;67.72
36244;DHT22;22284;49.956;19.816;2022-12-18T09:16:54;0.59;67.49
36244;DHT22;22284;49.956;19.816;2022-12-18T09:19:55;0.65;67.33
36244;DHT22;22284;49.956;19.816;2022-12-18T09:22:56;0.71;67.38
36244;DHT22;22284;49.956;19.816;2022-12-18T09:26:00;0.72;67.39
36244;DHT22;22284;49.956;19.816;2022-12-18T09:29:02;0.78;67.18
36244;DHT22;22284;49.956;19.816;2022-12-18T09:32:04;0.87;67.22
36244;DHT22;22284;49.956;19.816;2022-12-18T09:35:06;0.93;67.15
36244;DHT22;22284;49.956;19.816;2022-12-18T09:38:11;0.99;66.96
36244;DHT22;22284;49.956;19.816;2022-12-18T09:44:41;1.10;66.73
36244;DHT22;22284;49.956;19.816;2022-12-18T09:47:43;1.06;66.41
36244;DHT22;22284;49.956;19.816;2022-12-18T09:50:46;1.06;66.46
36244;DHT22;22284;49.956;19.816;2022-12-18T09:53:52;1.10;66.37
36244;DHT22;22284;49.956;19.816;2022-12-18T09:56:54;1.05;66.25
36244;DHT22;22284;49.956;19.816;2022-12-18T10:00:14;1.08;66.17
36244;DHT22;22284;49.956;19.816;2022-12-18T10:03:12;1.08;65.97
36244;DHT22;22284;49.956;19.816;2022-12-18T10:06:32;1.10;65.64
36244;DHT22;22284;49.956;19.816;2022-12-18T10:09:48;1.08;65.62
36244;DHT22;22284;49.956;19.816;2022-12-18T10:13:12;1.06;65.30
36244;DHT22;22284;49.956;19.816;2022-12-18T10:19:37;1.06;65.13
36244;DHT22;22284;49.956;19.816;2022-12-18T10:28:59;1.10;65.04
36244;DHT22;22284;49.956;19.816;2022-12-18T10:32:00;1.02;65.01
36244;DHT22;22284;49.956;19.816;2022-12-18T10:35:01;0.99;65.14
36244;DHT22;22284;49.956;19.816;2022-12-18T10:38:28;0.96;65.32
36244;DHT22;22284;49.956;19.816;2022-12-18T10:41:24;0.91;65.24
36244;DHT22;22284;49.956;19.816;2022-12-18T10:44:27;0.87;65.28
36244;DHT22;22284;49.956;19.816;2022-12-18T10:47:28;0.87;65.48
36244;DHT22;22284;49.956;19.816;2022-12-18T10:50:35;0.87;65.53
36244;DHT22;22284;49.956;19.816;2022-12-18T10:53:37;0.87;65.56
36244;DHT22;22284;49.956;19.816;2022-12-18T10:56:41;0.81;65.33
36244;DHT22;22284;49.956;19.816;2022-12-18T10:59:55;0.74;65.52
36244;DHT22;22284;49.956;19.816;2022-12-18T11:02:57;0.71;65.71
36244;DHT22;22284;49.956;19.816;2022-12-18T11:06:12;0.70;65.58
36244;DHT22;22284;49.956;19.816;2022-12-18T11:09:22;0.71;65.60
36244;DHT22;22284;49.956;19.816;2022-12-18T11:12:24;0.77;65.76
36244;DHT22;22284;49.956;19.816;2022-12-18T11:15:28;0.81;65.61
36244;DHT22;22284;49.956;19.816;2022-12-18T11:18:33;0.75;65.69
36244;DHT22;22284;49.956;19.816;2022-12-18T11:21:40;0.72;65.73
36244;DHT22;22284;49.956;19.816;2022-12-18T11:24:42;0.74;65.64
36244;DHT22;22284;49.956;19.816;2022-12-18T11:27:59;0.74;65.60
36244;DHT22;22284;49.956;19.816;2022-12-18T11:34:30;0.64;65.58
36244;DHT22;22284;49.956;19.816;2022-12-18T11:37:33;0.63;65.72
36244;DHT22;22284;49.956;19.816;2022-12-18T11:40:37;0.63;65.90
36244;DHT22;22284;49.956;19.816;2022-12-18T11:43:55;0.59;65.87
36244;DHT22;22284;49.956;19.816;2022-12-18T11:47:19;0.59;65.88
36244;DHT22;22284;49.956;19.816;2022-12-18T11:50:55;0.63;65.72
36244;DHT22;22284;49.956;19.816;2022-12-18T11:53:36;0.67;65.77
36244;DHT22;22284;49.956;19.816;2022-12-18T11:56:47;0.67;65.51
36244;DHT22;22284;49.956;19.816;2022-12-18T12:00:15;0.67;65.41
36244;DHT22;22284;49.956;19.816;2022-12-18T12:03:54;0.65;65.22
36244;DHT22;22284;49.956;19.816;2022-12-18T12:21:09;0.87;65.04
36244;DHT22;22284;49.956;19.816;2022-12-18T12:24:51;0.88;64.81
36244;DHT22;22284;49.956;19.816;2022-12-18T12:28:04;0.91;64.72
36244;DHT22;22284;49.956;19.816;2022-12-18T12:38:47;0.91;64.49
36244;DHT22;22284;49.956;19.816;2022-12-18T12:41:35;0.87;64.30
36244;DHT22;22284;49.956;19.816;2022-12-18T12:44:57;0.82;64.49
36244;DHT22;22284;49.956;19.816;2022-12-18T12:47:59;0.82;64.36
36244;DHT22;22284;49.956;19.816;2022-12-18T12:51:11;0.80;64.59
36244;DHT22;22284;49.956;19.816;2022-12-18T12:54:22;0.75;64.43
36244;DHT22;22284;49.956;19.816;2022-12-18T12:57:38;0.71;64.71
36244;DHT22;22284;49.956;19.816;2022-12-18T13:01:19;0.71;64.81
36244;DHT22;22284;49.956;19.816;2022-12-18T13:07:38;0.77;64.79
36244;DHT22;22284;49.956;19.816;2022-12-18T13:10:41;0.75;64.78
36244;DHT22;22284;49.956;19.816;2022-12-18T13:13:54;0.74;64.66
36244;DHT22;22284;49.956;19.816;2022-12-18T13:17:27;0.72;64.79
36244;DHT22;22284;49.956;19.816;2022-12-18T13:20:37;0.71;64.90
36244;DHT22;22284;49.956;19.816;2022-12-18T13:23:39;0.70;65.08
36244;DHT22;22284;49.956;19.816;2022-12-18T13:26:40;0.67;65.12
36244;DHT22;22284;49.956;19.816;2022-12-18T13:29:44;0.64;65.18
36244;DHT22;22284;49.956;19.816;2022-12-18T13:32:46;0.57;64.93
36244;DHT22;22284;49.956;19.816;2022-12-18T13:42:36;0.36;65.51
36244;DHT22;22284;49.956;19.816;2022-12-18T13:49:24;0.29;65.66
36244;DHT22;22284;49.956;19.816;2022-12-18T13:52:32;0.26;65.69
36244;DHT22;22284;49.956;19.816;2022-12-18T13:55:32;0.16;65.83
36244;DHT22;22284;49.956;19.816;2022-12-18T13:58:33;0.12;66.00
36244;DHT22;22284;49.956;19.816;2022-12-18T14:01:34;0.11;66.06
36244;DHT22;22284;49.956;19.816;2022-12-18T14:04:35;0.09;66.21
36244;DHT22;22284;49.956;19.816;2022-12-18T14:07:37;0.09;66.34
36244;DHT22;22284;49.956;19.816;2022-12-18T14:10:47;0.04;66.22
36244;DHT22;22284;49.956;19.816;2022-12-18T14:13:49;0.01;66.33
36244;DHT22;22284;49.956;19.816;2022-12-18T14:16:50;-0.06;66.48
36244;DHT22;22284;49.956;19.816;2022-12-18T14:19:53;-0.10;66.53
36244;DHT22;22284;49.956;19.816;2022-12-18T14:22:54;-0.16;66.66
36244;DHT22;22284;49.956;19.816;2022-12-18T14:25:56;-0.19;66.74
36244;DHT22;22284;49.956;19.816;2022-12-18T14:32:24;-0.31;66.91
36244;DHT22;22284;49.956;19.816;2022-12-18T14:35:25;-0.40;66.85
36244;DHT22;22284;49.956;19.816;2022-12-18T14:38:35;-0.48;67.01
36244;DHT22;22284;49.956;19.816;2022-12-18T14:41:36;-0.54;67.04
36244;DHT22;22284;49.956;19.816;2022-12-18T14:44:37;-0.62;67.09
36244;DHT22;22284;49.956;19.816;2022-12-18T14:47:38;-0.66;67.10
36244;DHT22;22284;49.956;19.816;2022-12-18T14:50:42;-0.71;67.14
36244;DHT22;22284;49.956;19.816;2022-12-18T14:53:47;-0.83;66.96
36244;DHT22;22284;49.956;19.816;2022-12-18T14:56:53;-0.86;67.11
36244;DHT22;22284;49.956;19.816;2022-12-18T15:00:10;-0.92;67.04
36244;DHT22;22284;49.956;19.816;2022-12-18T15:03:10;-1.03;67.06
36244;DHT22;22284;49.956;19.816;2022-12-18T15:06:24;-1.09;67.18
36244;DHT22;22284;49.956;19.816;2022-12-18T15:09:27;-1.20;67.17
36244;DHT22;22284;49.956;19.816;2022-12-18T15:12:46;-1.31;67.34
36244;DHT22;22284;49.956;19.816;2022-12-18T15:15:48;-1.38;67.55
36244;DHT22;22284;49.956;19.816;2022-12-18T15:18:50;-1.45;67.80
36244;DHT22;22284;49.956;19.816;2022-12-18T15:21:51;-1.54;67.88
36244;DHT22;22284;49.956;19.816;2022-12-18T15:24:53;-1.59;68.14
36244;DHT22;22284;49.956;19.816;2022-12-18T15:27:54;-1.65;68.16
36244;DHT22;22284;49.956;19.816;2022-12-18T15:34:20;-1.76;68.06
36244;DHT22;22284;49.956;19.816;2022-12-18T15:37:22;-1.82;67.92
36244;DHT22;22284;49.956;19.816;2022-12-18T15:40:23;-1.86;67.84
36244;DHT22;22284;49.956;19.816;2022-12-18T15:43:25;-1.92;67.57
36244;DHT22;22284;49.956;19.816;2022-12-18T15:46:35;-1.99;67.47
36244;DHT22;22284;49.956;19.816;2022-12-18T15:49:36;-2.06;67.30
36244;DHT22;22284;49.956;19.816;2022-12-18T15:52:47;-2.14;66.95
36244;DHT22;22284;49.956;19.816;2022-12-18T15:55:48;-2.22;66.74
36244;DHT22;22284;49.956;19.816;2022-12-18T15:59:17;-2.31;66.40
36244;DHT22;22284;49.956;19.816;2022-12-18T16:02:20;-2.39;66.36
36244;DHT22;22284;49.956;19.816;2022-12-18T16:05:23;-2.52;66.13
36244;DHT22;22284;49.956;19.816;2022-12-18T16:08:25;-2.61;66.06
36244;DHT22;22284;49.956;19.816;2022-12-18T16:11:29;-2.70;65.86
36244;DHT22;22284;49.956;19.816;2022-12-18T16:14:40;-2.79;65.73
36244;DHT22;22284;49.956;19.816;2022-12-18T16:17:41;-2.80;65.76
36244;DHT22;22284;49.956;19.816;2022-12-18T16:20:42;-2.73;66.17
36244;DHT22;22284;49.956;19.816;2022-12-18T16:23:43;-2.66;65.97
36244;DHT22;22284;49.956;19.816;2022-12-18T16:26:45;-2.62;65.77
36244;DHT22;22284;49.956;19.816;2022-12-18T16:29:46;-2.59;65.45
36244;DHT22;22284;49.956;19.816;2022-12-18T16:32:47;-2.58;64.90
36244;DHT22;22284;49.956;19.816;2022-12-18T16:35:53;-2.66;63.96
36244;DHT22;22284;49.956;19.816;2022-12-18T16:38:54;-2.93;63.36
36244;DHT22;22284;49.956;19.816;2022-12-18T16:41:55;-3.14;63.13
36244;DHT22;22284;49.956;19.816;2022-12-18T16:44:55;-3.28;62.99
36244;DHT22;22284;49.956;19.816;2022-12-18T16:47:56;-3.36;63.02
36244;DHT22;22284;49.956;19.816;2022-12-18T16:51:03;-3.49;62.92
36244;DHT22;22284;49.956;19.816;2022-12-18T16:54:05;-3.62;62.98
36244;DHT22;22284;49.956;19.816;2022-12-18T16:57:06;-3.71;63.05
36244;DHT22;22284;49.956;19.816;2022-12-18T17:00:09;-3.79;63.19
36244;DHT22;22284;49.956;19.816;2022-12-18T17:03:10;-3.87;63.14
36244;DHT22;22284;49.956;19.816;2022-12-18T17:06:11;-3.94;63.24
36244;DHT22;22284;49.956;19.816;2022-12-18T17:09:14;-3.98;63.32
36244;DHT22;22284;49.956;19.816;2022-12-18T17:12:17;-4.07;63.27
36244;DHT22;22284;49.956;19.816;2022-12-18T17:15:18;-4.15;63.05
36244;DHT22;22284;49.956;19.816;2022-12-18T17:18:19;-4.25;63.05
36244;DHT22;22284;49.956;19.816;2022-12-18T17:21:21;-4.32;62.87
36244;DHT22;22284;49.956;19.816;2022-12-18T17:24:22;-4.40;62.66
36244;DHT22;22284;49.956;19.816;2022-12-18T17:27:23;-4.47;62.73
36244;DHT22;22284;49.956;19.816;2022-12-18T17:30:24;-4.57;62.58
36244;DHT22;22284;49.956;19.816;2022-12-18T17:33:25;-4.61;62.85
36244;DHT22;22284;49.956;19.816;2022-12-18T17:36:26;-4.71;63.00
36244;DHT22;22284;49.956;19.816;2022-12-18T17:39:33;-4.88;62.58
36244;DHT22;22284;49.956;19.816;2022-12-18T17:42:34;-4.93;62.32
36244;DHT22;22284;49.956;19.816;2022-12-18T17:45:38;-4.92;62.22
36244;DHT22;22284;49.956;19.816;2022-12-18T17:48:39;-4.93;62.23
36244;DHT22;22284;49.956;19.816;2022-12-18T17:51:41;-4.93;62.19
36244;DHT22;22284;49.956;19.816;2022-12-18T17:54:42;-4.96;62.20
36244;DHT22;22284;49.956;19.816;2022-12-18T17:57:43;-5.06;61.83
36244;DHT22;22284;49.956;19.816;2022-12-18T18:00:45;-5.15;61.77
36244;DHT22;22284;49.956;19.816;2022-12-18T18:16:24;-5.51;61.57
36244;DHT22;22284;49.956;19.816;2022-12-18T18:19:25;-5.48;61.52
36244;DHT22;22284;49.956;19.816;2022-12-18T18:22:26;-5.43;61.50
36244;DHT22;22284;49.956;19.816;2022-12-18T18:25:27;-5.43;61.50
36244;DHT22;22284;49.956;19.816;2022-12-18T18:28:28;-5.39;61.68
36244;DHT22;22284;49.956;19.816;2022-12-18T18:31:31;-5.37;61.73
36244;DHT22;22284;49.956;19.816;2022-12-18T18:34:36;-5.36;61.78
36244;DHT22;22284;49.956;19.816;2022-12-18T18:37:35;-5.33;61.69
36244;DHT22;22284;49.956;19.816;2022-12-18T18:40:36;-5.33;61.80
36244;DHT22;22284;49.956;19.816;2022-12-18T18:43:37;-5.33;61.72
36244;DHT22;22284;49.956;19.816;2022-12-18T18:46:38;-5.36;62.10
36244;DHT22;22284;49.956;19.816;2022-12-18T18:49:39;-5.40;62.31
36244;DHT22;22284;49.956;19.816;2022-12-18T18:52:40;-5.47;61.92
36244;DHT22;22284;49.956;19.816;2022-12-18T18:55:41;-5.48;61.94
36244;DHT22;22284;49.956;19.816;2022-12-18T18:58:42;-5.51;62.22
36244;DHT22;22284;49.956;19.816;2022-12-18T19:01:44;-5.54;62.29
36244;DHT22;22284;49.956;19.816;2022-12-18T19:04:45;-5.72;61.84
36244;DHT22;22284;49.956;19.816;2022-12-18T19:07:46;-5.81;60.95
36244;DHT22;22284;49.956;19.816;2022-12-18T19:10:52;-5.82;60.46
36244;DHT22;22284;49.956;19.816;2022-12-18T19:13:55;-5.89;60.16
36244;DHT22;22284;49.956;19.816;2022-12-18T19:16:56;-5.89;60.45
36244;DHT22;22284;49.956;19.816;2022-12-18T19:19:58;-5.86;60.52
36244;DHT22;22284;49.956;19.816;2022-12-18T21:27:23;-3.87;52.70
36244;DHT22;22284;49.956;19.816;2022-12-18T21:30:25;-4.72;49.94
36244;DHT22;22284;49.956;19.816;2022-12-18T21:33:26;-5.42;49.96
36244;DHT22;22284;49.956;19.816;2022-12-18T21:36:27;-5.76;50.58
36244;DHT22;22284;49.956;19.816;2022-12-18T21:39:29;-6.06;50.57
36244;DHT22;22284;49.956;19.816;2022-12-18T21:42:30;-6.41;50.75
36244;DHT22;22284;49.956;19.816;2022-12-18T21:45:49;-6.68;51.37
36244;DHT22;22284;49.956;19.816;2022-12-18T21:48:50;-6.89;51.95
36244;DHT22;22284;49.956;19.816;2022-12-18T21:51:56;-7.00;52.46
36244;DHT22;22284;49.956;19.816;2022-12-18T21:54:57;-7.13;52.38
36244;DHT22;22284;49.956;19.816;2022-12-18T21:57:58;-7.20;53.00
36244;DHT22;22284;49.956;19.816;2022-12-18T22:00:59;-7.24;53.19
36244;DHT22;22284;49.956;19.816;2022-12-18T22:04:00;-7.31;53.46
36244;DHT22;22284;49.956;19.816;2022-12-18T22:07:02;-7.34;53.64
36244;DHT22;22284;49.956;19.816;2022-12-18T22:10:06;-7.39;53.74
36244;DHT22;22284;49.956;19.816;2022-12-18T22:13:07;-7.38;53.71
36244;DHT22;22284;49.956;19.816;2022-12-18T22:16:08;-7.42;53.68
36244;DHT22;22284;49.956;19.816;2022-12-18T22:19:09;-7.48;53.50
36244;DHT22;22284;49.956;19.816;2022-12-18T22:22:11;-7.51;53.30
36244;DHT22;22284;49.956;19.816;2022-12-18T22:25:11;-7.49;53.47
36244;DHT22;22284;49.956;19.816;2022-12-18T22:28:13;-7.48;53.47
36244;DHT22;22284;49.956;19.816;2022-12-18T22:31:33;-7.46;53.61
36244;DHT22;22284;49.956;19.816;2022-12-18T22:34:34;-7.55;52.70
36244;DHT22;22284;49.956;19.816;2022-12-18T22:37:35;-7.67;52.56
36244;DHT22;22284;49.956;19.816;2022-12-18T22:40:36;-7.76;52.44
36244;DHT22;22284;49.956;19.816;2022-12-18T22:43:37;-7.83;52.09
36244;DHT22;22284;49.956;19.816;2022-12-18T22:46:44;-7.86;52.00
36244;DHT22;22284;49.956;19.816;2022-12-18T22:49:46;-7.90;52.18